createdAt,value
2018-11-22T12:15:57.488Z,34.90
2018-11-22T12:18:25.155Z,37.43
2018-11-22T12:20:52.846Z,34.00
2018-11-22T12:23:20.531Z,34.00
2018-11-22T12:25:48.230Z,34.60
2018-11-22T12:28:15.900Z,36.23
2018-11-22T12:30:43.493Z,34.50
2018-11-22T12:33:19.581Z,36.67
2018-11-22T12:35:53.611Z,34.07
2018-11-22T12:38:27.073Z,34.93
2018-11-22T12:40:54.714Z,33.70
2018-11-22T12:43:22.361Z,36.53
2018-11-22T12:45:49.970Z,34.97
2018-11-22T12:48:17.667Z,36.80
2018-11-22T12:50:45.277Z,33.73
2018-11-22T12:53:13.179Z,34.40
2018-11-22T12:55:40.845Z,34.90
2018-11-22T12:58:08.541Z,34.50
2018-11-22T13:00:36.424Z,36.43
2018-11-22T13:03:04.119Z,36.33
2018-11-22T13:05:31.991Z,36.90
2018-11-22T13:07:59.637Z,36.07
2018-11-22T13:10:27.268Z,34.90
2018-11-22T13:12:54.882Z,35.27
2018-11-22T13:15:22.497Z,36.43
2018-11-22T13:17:50.138Z,37.17
2018-11-22T13:20:19.219Z,38.70
2018-11-22T13:22:46.877Z,37.13
2018-11-22T13:25:17.129Z,35.00
2018-11-22T13:27:44.824Z,36.17
2018-11-22T13:30:15.197Z,37.37
2018-11-22T13:32:43.580Z,36.30
2018-11-22T13:35:12.273Z,36.60
2018-11-22T13:37:40.456Z,37.10
2018-11-22T13:40:09.603Z,37.17
2018-11-22T13:42:37.493Z,38.60
2018-11-22T13:45:07.891Z,38.40
2018-11-22T13:47:35.649Z,38.53
2018-11-22T13:50:04.190Z,38.17
2018-11-22T13:52:37.194Z,37.50
2018-11-22T13:54:59.492Z,37.20
2018-11-22T13:57:27.201Z,37.17
2018-11-22T13:59:58.408Z,36.20
2018-11-22T14:02:22.448Z,39.93
2018-11-22T14:04:50.183Z,36.80
2018-11-22T14:07:17.825Z,36.23
2018-11-22T14:09:45.468Z,38.97
2018-11-22T14:12:13.110Z,38.50
2018-11-22T14:14:40.732Z,38.37
2018-11-22T14:17:08.476Z,38.00
2018-11-22T14:19:36.133Z,39.80
2018-11-22T14:22:03.961Z,37.50
2018-11-22T14:24:31.528Z,39.27
2018-11-22T14:26:59.101Z,40.60
2018-11-22T14:29:26.760Z,38.57
2018-11-22T14:31:54.591Z,38.43
2018-11-22T14:34:22.244Z,36.63
2018-11-22T14:36:49.843Z,37.87
2018-11-22T14:39:17.490Z,40.00
2018-11-22T14:41:45.213Z,39.77
2018-11-22T14:44:12.839Z,37.60
2018-11-22T14:46:40.440Z,36.70
2018-11-22T14:49:09.107Z,38.13
2018-11-22T14:51:43.259Z,39.50
2018-11-22T14:54:10.924Z,38.13
2018-11-22T14:56:38.597Z,36.60
2018-11-22T14:59:07.222Z,37.80
2018-11-22T15:01:34.863Z,38.30
2018-11-22T15:04:02.510Z,37.03
2018-11-22T15:06:30.215Z,36.90
2018-11-22T15:08:57.893Z,37.20
2018-11-22T15:11:26.085Z,40.47
2018-11-22T15:13:54.060Z,37.63
2018-11-22T15:16:21.680Z,40.43
2018-11-22T15:18:49.388Z,39.50
2018-11-22T15:21:23.773Z,38.77
2018-11-22T15:23:51.595Z,40.37
2018-11-22T15:26:19.201Z,40.13
2018-11-22T15:28:46.899Z,37.87
2018-11-22T15:31:14.949Z,41.60
2018-11-22T15:33:42.661Z,41.50
2018-11-22T15:36:10.341Z,38.30
2018-11-22T15:38:38.019Z,38.70
2018-11-22T15:41:07.931Z,38.77
2018-11-22T15:43:35.609Z,40.40
2018-11-22T15:46:03.352Z,38.80
2018-11-22T15:48:31.227Z,39.83
2018-11-22T15:50:58.960Z,38.67
2018-11-22T15:53:26.705Z,39.53
2018-11-22T15:55:54.356Z,38.47
2018-11-22T15:58:21.998Z,40.33
2018-11-22T16:00:49.694Z,43.70
2018-11-22T16:03:17.346Z,39.60
2018-11-22T16:05:44.992Z,41.73
2018-11-22T16:08:12.675Z,39.00
2018-11-22T16:10:40.310Z,42.80
2018-11-22T16:13:10.092Z,40.50
2018-11-22T16:15:40.938Z,39.27
2018-11-22T16:18:08.614Z,39.37
2018-11-22T16:20:36.483Z,43.33
2018-11-22T16:23:04.608Z,42.27
2018-11-22T16:25:32.260Z,44.23
2018-11-22T16:27:59.925Z,44.80
2018-11-22T16:30:28.572Z,42.20
2018-11-22T16:32:56.172Z,42.57
2018-11-22T16:35:24.679Z,42.50
2018-11-22T16:37:52.345Z,41.73
2018-11-22T16:40:21.499Z,41.43
2018-11-22T16:42:50.379Z,42.20
2018-11-22T16:45:27.843Z,42.40
2018-11-22T16:47:56.011Z,43.03
2018-11-22T16:50:24.908Z,37.80
2018-11-22T16:52:52.769Z,41.43
2018-11-22T16:55:21.043Z,41.43
2018-11-22T16:57:49.729Z,41.77
2018-11-22T17:00:27.276Z,42.13
2018-11-22T17:02:56.344Z,40.73
2018-11-22T17:05:24.108Z,41.67
2018-11-22T17:07:51.911Z,42.93
2018-11-22T17:10:20.841Z,41.23
2018-11-22T17:12:49.563Z,41.20
2018-11-22T17:15:18.641Z,43.80
2018-11-22T17:17:46.781Z,42.63
2018-11-22T17:20:15.581Z,41.67
2018-11-22T17:22:44.133Z,41.93
2018-11-22T17:25:14.606Z,40.67
2018-11-22T17:27:42.984Z,40.37
2018-11-22T17:30:13.204Z,40.60
2018-11-22T17:32:41.369Z,40.90
2018-11-22T17:35:11.443Z,41.83
2018-11-22T17:37:38.945Z,42.90
2018-11-22T17:40:10.953Z,42.87
2018-11-22T17:42:38.522Z,41.50
2018-11-22T17:45:08.725Z,42.50
2018-11-22T17:47:36.324Z,42.83
2018-11-22T17:50:04.465Z,41.60
2018-11-22T17:52:32.012Z,42.67
2018-11-22T17:54:59.591Z,42.43
2018-11-22T17:57:27.559Z,39.80
2018-11-22T17:59:55.156Z,41.60
2018-11-22T18:02:22.748Z,42.63
2018-11-22T18:04:50.377Z,42.70
2018-11-22T18:07:17.949Z,44.00
2018-11-22T18:09:45.536Z,41.00
2018-11-22T18:12:13.097Z,42.83
2018-11-22T18:14:40.733Z,42.03
2018-11-22T18:17:09.472Z,43.13
2018-11-22T18:19:37.423Z,43.00
2018-11-22T18:22:05.138Z,42.90
2018-11-22T18:24:32.708Z,44.20
2018-11-22T18:27:00.264Z,45.27
2018-11-22T18:29:28.069Z,39.37
2018-11-22T18:31:55.591Z,44.30
2018-11-22T18:34:23.219Z,40.83
2018-11-22T18:36:50.903Z,41.97
2018-11-22T18:39:18.463Z,45.00
2018-11-22T18:41:45.983Z,40.57
2018-11-22T18:44:13.588Z,43.90
2018-11-22T18:46:41.141Z,42.47
2018-11-22T18:49:09.695Z,44.07
2018-11-22T18:51:38.005Z,41.63
2018-11-22T18:54:05.544Z,41.30
2018-11-22T18:56:37.144Z,41.23
2018-11-22T18:59:01.545Z,41.83
2018-11-22T19:01:29.659Z,43.87
2018-11-22T19:03:57.307Z,42.70
2018-11-22T19:06:24.838Z,43.40
2018-11-22T19:08:52.809Z,46.17
2018-11-22T19:11:20.438Z,40.40
2018-11-22T19:13:48.016Z,42.50
2018-11-22T19:16:15.652Z,45.03
2018-11-22T19:18:43.248Z,40.90
2018-11-22T19:21:10.871Z,40.00
2018-11-22T19:23:39.218Z,42.13
2018-11-22T19:26:06.794Z,42.27
2018-11-22T19:28:34.372Z,45.50
2018-11-22T19:31:01.980Z,43.33
2018-11-22T19:33:29.577Z,43.80
2018-11-22T19:35:57.153Z,44.07
2018-11-22T19:38:24.863Z,43.97
2018-11-22T19:40:53.158Z,43.47
2018-11-22T19:43:20.908Z,42.13
2018-11-22T19:45:49.002Z,41.23
2018-11-22T19:48:16.716Z,44.50
2018-11-22T19:50:44.319Z,43.07
2018-11-22T19:53:13.190Z,41.77
2018-11-22T19:55:41.209Z,45.30
2018-11-22T19:58:10.233Z,43.70
2018-11-22T20:00:37.904Z,42.90
2018-11-22T20:03:06.512Z,41.87
2018-11-22T20:05:35.762Z,41.33
2018-11-22T20:08:05.319Z,41.27
2018-11-22T20:10:34.516Z,45.73
2018-11-22T20:13:02.075Z,43.80
2018-11-22T20:15:30.174Z,43.97
2018-11-22T20:17:58.528Z,42.67
2018-11-22T20:20:26.448Z,43.20
2018-11-22T20:22:54.121Z,40.50
2018-11-22T20:25:21.703Z,42.40
2018-11-22T20:27:50.342Z,43.17
2018-11-22T20:30:20.518Z,44.00
2018-11-22T20:32:48.094Z,43.23
2018-11-22T20:35:16.917Z,43.13
2018-11-22T20:37:45.312Z,41.83
2018-11-22T20:40:14.337Z,44.87
2018-11-22T20:42:42.421Z,44.00
2018-11-22T20:45:12.280Z,46.20
2018-11-22T20:47:40.679Z,41.20
2018-11-22T20:50:10.945Z,44.80
2018-11-22T20:52:39.501Z,45.20
2018-11-22T20:55:10.365Z,44.70
2018-11-22T20:57:43.577Z,41.07
2018-11-22T21:00:13.772Z,45.30
2018-11-22T21:02:41.354Z,42.63
2018-11-22T21:05:10.698Z,42.17
2018-11-22T21:07:38.520Z,43.37
2018-11-22T21:10:08.300Z,42.70
2018-11-22T21:12:35.994Z,45.03
2018-11-22T21:15:04.570Z,45.00
2018-11-22T21:17:32.292Z,43.97
2018-11-22T21:19:59.855Z,41.70
2018-11-22T21:22:27.540Z,43.20
2018-11-22T21:24:55.165Z,43.73
2018-11-22T21:27:22.856Z,42.73
2018-11-22T21:29:50.509Z,42.20
2018-11-22T21:32:18.062Z,42.33
2018-11-22T21:34:45.699Z,41.50
2018-11-22T21:37:13.240Z,41.80
2018-11-22T21:39:40.990Z,43.00
2018-11-22T21:42:08.794Z,41.80
2018-11-22T21:44:36.529Z,44.03
2018-11-22T21:59:55.649Z,41.33
2018-11-22T22:02:23.426Z,39.73
2018-11-22T22:04:51.144Z,42.50
2018-11-22T22:07:18.801Z,41.40
2018-11-22T22:09:46.630Z,40.47
2018-11-22T22:12:14.408Z,43.23
2018-11-22T22:14:42.188Z,41.83
2018-11-22T22:17:11.328Z,41.10
2018-11-22T22:19:39.386Z,42.63
2018-11-22T22:22:07.216Z,41.40
2018-11-22T22:24:34.830Z,37.80
2018-11-22T22:27:02.442Z,40.00
2018-11-22T22:29:30.345Z,40.87
2018-11-22T22:31:58.064Z,43.10
2018-11-22T22:34:25.706Z,42.30
2018-11-22T22:36:53.537Z,40.57
2018-11-22T22:39:21.268Z,42.17
2018-11-22T22:41:49.342Z,39.47
2018-11-22T22:44:17.025Z,40.77
2018-11-22T22:46:44.649Z,36.87
2018-11-22T22:49:12.321Z,39.90
2018-11-22T22:51:40.067Z,39.60
2018-11-22T22:54:07.638Z,40.93
2018-11-22T22:56:35.269Z,42.07
2018-11-22T22:59:02.929Z,39.97
2018-11-22T23:01:30.526Z,42.20
2018-11-22T23:03:58.285Z,41.13
2018-11-22T23:06:25.976Z,40.20
2018-11-22T23:08:53.576Z,39.37
2018-11-22T23:11:21.136Z,42.00
2018-11-22T23:13:49.002Z,41.13
2018-11-22T23:16:16.581Z,39.20
2018-11-22T23:18:44.233Z,42.93
2018-11-22T23:21:11.794Z,42.17
2018-11-22T23:23:39.439Z,40.00
2018-11-22T23:26:07.060Z,39.23
2018-11-22T23:28:34.659Z,39.83
2018-11-22T23:31:02.432Z,41.70
2018-11-22T23:33:30.425Z,39.70
2018-11-22T23:35:57.955Z,42.33
2018-11-22T23:38:25.600Z,41.80
2018-11-22T23:40:53.317Z,39.10
2018-11-22T23:43:20.987Z,37.43
2018-11-22T23:45:48.638Z,37.37
2018-11-22T23:48:16.234Z,45.03
2018-11-22T23:50:43.828Z,42.73
2018-11-22T23:53:11.546Z,38.60
2018-11-22T23:55:39.208Z,37.27
2018-11-22T23:58:10.125Z,40.30
